TAF

 

                                                            

 

                                         SANTO DOMINGO 12 ABRIL DEL 2021

                                                                               AEROP. INT. LAS AMERICAS JFPG-

 

 

 

FTDR31 MDSD 121000Z
TAF 

TAF MDPP 121000Z 1212/1312 00000KT 9999 SCT016 BECMG 1214/1216 090016KT=

TAF MDST 121000Z 1212/1312 00000KT 9999 SCT016 BECMG 1212/1205 13012KT=  

TAF MDPC 121000Z 1212/1312 00000KT 9999 FEW018 BECMG 1212/1214 06005KT=

TAF MDBH 121000Z 1212/1312 13010KT 9999 FEW022 SCT100=

TAF MDJB 121000Z 1212/1312 03010KT 9999 SCT020=

TAF MDSD 121000Z 1212/1312 04006KT 9999 FEW020 BECMG 1216/1218 13012KT=

TAF MDLR 121000Z 1212/1312 06004KT 9999 FEW018 BECMG 1214/1216 12013KT==

TAF MDCY 121000Z 1212/1312 07010KT 9999 SCT018=

MDPP AEROPUERTO INTERNACIONAL LA UNION PUERTO PLATA

MDST AEROPUERTO INTERNACIONAL DE SANTIAGO

MDPC AEROPUERTO INTERNACIONAL PUNTA CANA

MDBH AEROPUERTO INTERNACIONAL DE BARAHONA

MDJB AEROPUERTO INTERNACIONAL JOAQUIN BALAGUER

MDSD AEROPUERTO INTERNACIONAL LAS AMERICAS

MDLR AEROPUERTO INTERNACIONAL LA ROMANA

MDCY AEROPUERTO INTERNACIONAL DE CATEY

 

HENRIQUEZ  A.

MDPP// R LUCIANO

MDST// J SALADO

MDPC// M OTAÑEZ

MDBH// PHA

MDJB// PHA

MDLR//L JIMENEZ

MDCY// PHA